sensor_id;sensor_type;location;lat;lon;timestamp;P1;durP1;ratioP1;P2;durP2;ratioP2
28007;SDS011;15333;50.010;20.020;2024-02-15T00:01:28;73.68;;;37.92;;
28007;SDS011;15333;50.010;20.020;2024-02-15T00:04:29;80.18;;;40.55;;
28007;SDS011;15333;50.010;20.020;2024-02-15T00:07:30;81.25;;;39.55;;
28007;SDS011;15333;50.010;20.020;2024-02-15T00:10:30;100.80;;;51.70;;
28007;SDS011;15333;50.010;20.020;2024-02-15T00:13:31;82.95;;;42.45;;
28007;SDS011;15333;50.010;20.020;2024-02-15T00:16:34;81.03;;;46.10;;
28007;SDS011;15333;50.010;20.020;2024-02-15T00:19:38;90.97;;;49.17;;
28007;SDS011;15333;50.010;20.020;2024-02-15T00:22:41;84.72;;;43.13;;
28007;SDS011;15333;50.010;20.020;2024-02-15T00:25:42;78.35;;;40.63;;
28007;SDS011;15333;50.010;20.020;2024-02-15T00:28:45;82.32;;;41.30;;
28007;SDS011;15333;50.010;20.020;2024-02-15T00:31:46;76.90;;;39.65;;
28007;SDS011;15333;50.010;20.020;2024-02-15T00:34:47;75.07;;;39.03;;
28007;SDS011;15333;50.010;20.020;2024-02-15T00:37:48;76.30;;;38.45;;
28007;SDS011;15333;50.010;20.020;2024-02-15T00:40:50;80.20;;;41.08;;
28007;SDS011;15333;50.010;20.020;2024-02-15T00:43:51;83.15;;;41.40;;
28007;SDS011;15333;50.010;20.020;2024-02-15T00:46:52;73.50;;;40.42;;
28007;SDS011;15333;50.010;20.020;2024-02-15T00:49:53;79.88;;;41.10;;
28007;SDS011;15333;50.010;20.020;2024-02-15T00:52:54;74.65;;;42.33;;
28007;SDS011;15333;50.010;20.020;2024-02-15T00:55:55;80.10;;;40.75;;
28007;SDS011;15333;50.010;20.020;2024-02-15T00:58:56;83.20;;;36.15;;
28007;SDS011;15333;50.010;20.020;2024-02-15T01:01:57;80.25;;;40.45;;
28007;SDS011;15333;50.010;20.020;2024-02-15T01:04:58;74.05;;;36.47;;
28007;SDS011;15333;50.010;20.020;2024-02-15T01:07:59;69.43;;;35.42;;
28007;SDS011;15333;50.010;20.020;2024-02-15T01:11:00;68.43;;;34.55;;
28007;SDS011;15333;50.010;20.020;2024-02-15T01:14:01;72.97;;;37.22;;
28007;SDS011;15333;50.010;20.020;2024-02-15T01:17:02;75.10;;;36.65;;
28007;SDS011;15333;50.010;20.020;2024-02-15T01:20:03;73.88;;;37.85;;
28007;SDS011;15333;50.010;20.020;2024-02-15T01:23:04;70.15;;;36.50;;
28007;SDS011;15333;50.010;20.020;2024-02-15T01:26:08;66.88;;;36.22;;
28007;SDS011;15333;50.010;20.020;2024-02-15T01:29:09;66.55;;;36.17;;
28007;SDS011;15333;50.010;20.020;2024-02-15T01:32:12;63.63;;;34.58;;
28007;SDS011;15333;50.010;20.020;2024-02-15T01:35:13;61.70;;;32.78;;
28007;SDS011;15333;50.010;20.020;2024-02-15T01:38:14;62.80;;;31.67;;
28007;SDS011;15333;50.010;20.020;2024-02-15T01:41:15;65.05;;;34.58;;
28007;SDS011;15333;50.010;20.020;2024-02-15T01:44:17;62.35;;;32.72;;
28007;SDS011;15333;50.010;20.020;2024-02-15T01:47:20;63.38;;;33.75;;
28007;SDS011;15333;50.010;20.020;2024-02-15T01:50:22;60.90;;;33.42;;
28007;SDS011;15333;50.010;20.020;2024-02-15T01:53:25;63.88;;;30.98;;
28007;SDS011;15333;50.010;20.020;2024-02-15T01:56:28;63.47;;;32.10;;
28007;SDS011;15333;50.010;20.020;2024-02-15T01:59:30;65.93;;;32.28;;
28007;SDS011;15333;50.010;20.020;2024-02-15T02:02:32;64.30;;;33.65;;
28007;SDS011;15333;50.010;20.020;2024-02-15T02:05:35;62.70;;;31.63;;
28007;SDS011;15333;50.010;20.020;2024-02-15T02:08:36;60.80;;;33.55;;
28007;SDS011;15333;50.010;20.020;2024-02-15T02:11:37;60.65;;;31.42;;
28007;SDS011;15333;50.010;20.020;2024-02-15T02:14:38;64.75;;;32.15;;
28007;SDS011;15333;50.010;20.020;2024-02-15T02:17:39;63.60;;;33.33;;
28007;SDS011;15333;50.010;20.020;2024-02-15T02:20:41;59.83;;;31.40;;
28007;SDS011;15333;50.010;20.020;2024-02-15T02:23:42;50.33;;;26.98;;
28007;SDS011;15333;50.010;20.020;2024-02-15T02:26:47;50.35;;;26.95;;
28007;SDS011;15333;50.010;20.020;2024-02-15T02:29:49;46.67;;;24.20;;
28007;SDS011;15333;50.010;20.020;2024-02-15T02:32:51;43.83;;;24.38;;
28007;SDS011;15333;50.010;20.020;2024-02-15T02:35:51;45.78;;;25.10;;
28007;SDS011;15333;50.010;20.020;2024-02-15T02:38:53;49.65;;;25.27;;
28007;SDS011;15333;50.010;20.020;2024-02-15T02:41:53;46.97;;;24.23;;
28007;SDS011;15333;50.010;20.020;2024-02-15T02:44:54;45.83;;;25.27;;
28007;SDS011;15333;50.010;20.020;2024-02-15T02:47:55;50.75;;;26.25;;
28007;SDS011;15333;50.010;20.020;2024-02-15T02:50:56;46.47;;;24.15;;
28007;SDS011;15333;50.010;20.020;2024-02-15T02:53:58;41.85;;;24.88;;
28007;SDS011;15333;50.010;20.020;2024-02-15T02:56:59;41.58;;;21.67;;
28007;SDS011;15333;50.010;20.020;2024-02-15T02:59:59;34.72;;;18.20;;
28007;SDS011;15333;50.010;20.020;2024-02-15T03:03:00;34.75;;;19.15;;
28007;SDS011;15333;50.010;20.020;2024-02-15T03:06:02;32.65;;;17.42;;
28007;SDS011;15333;50.010;20.020;2024-02-15T03:09:03;34.00;;;19.10;;
28007;SDS011;15333;50.010;20.020;2024-02-15T03:12:07;36.15;;;17.75;;
28007;SDS011;15333;50.010;20.020;2024-02-15T03:15:10;30.13;;;17.27;;
28007;SDS011;15333;50.010;20.020;2024-02-15T03:18:14;29.40;;;15.95;;
28007;SDS011;15333;50.010;20.020;2024-02-15T03:21:16;29.92;;;14.65;;
28007;SDS011;15333;50.010;20.020;2024-02-15T03:24:18;25.08;;;14.35;;
28007;SDS011;15333;50.010;20.020;2024-02-15T03:27:19;26.13;;;13.95;;
28007;SDS011;15333;50.010;20.020;2024-02-15T03:30:24;25.60;;;13.80;;
28007;SDS011;15333;50.010;20.020;2024-02-15T03:33:26;25.63;;;13.90;;
28007;SDS011;15333;50.010;20.020;2024-02-15T03:36:32;25.50;;;13.70;;
28007;SDS011;15333;50.010;20.020;2024-02-15T03:39:34;26.52;;;14.23;;
28007;SDS011;15333;50.010;20.020;2024-02-15T03:42:35;24.92;;;13.13;;
28007;SDS011;15333;50.010;20.020;2024-02-15T03:45:39;25.50;;;13.45;;
28007;SDS011;15333;50.010;20.020;2024-02-15T03:48:45;22.48;;;12.50;;
28007;SDS011;15333;50.010;20.020;2024-02-15T03:51:46;23.40;;;12.45;;
28007;SDS011;15333;50.010;20.020;2024-02-15T03:54:48;23.95;;;13.65;;
28007;SDS011;15333;50.010;20.020;2024-02-15T03:57:49;27.73;;;13.57;;
28007;SDS011;15333;50.010;20.020;2024-02-15T04:00:50;25.95;;;14.60;;
28007;SDS011;15333;50.010;20.020;2024-02-15T04:03:51;39.85;;;19.48;;
28007;SDS011;15333;50.010;20.020;2024-02-15T04:06:52;36.85;;;20.08;;
28007;SDS011;15333;50.010;20.020;2024-02-15T04:09:53;51.08;;;25.63;;
28007;SDS011;15333;50.010;20.020;2024-02-15T04:12:54;42.55;;;24.45;;
28007;SDS011;15333;50.010;20.020;2024-02-15T04:15:55;52.08;;;25.67;;
28007;SDS011;15333;50.010;20.020;2024-02-15T04:18:57;48.80;;;27.45;;
28007;SDS011;15333;50.010;20.020;2024-02-15T04:21:58;59.33;;;31.58;;
28007;SDS011;15333;50.010;20.020;2024-02-15T04:25:00;59.78;;;31.35;;
28007;SDS011;15333;50.010;20.020;2024-02-15T04:28:02;58.53;;;30.65;;
28007;SDS011;15333;50.010;20.020;2024-02-15T04:31:04;54.13;;;31.92;;
28007;SDS011;15333;50.010;20.020;2024-02-15T04:34:06;59.25;;;31.77;;
28007;SDS011;15333;50.010;20.020;2024-02-15T04:37:07;62.45;;;31.80;;
28007;SDS011;15333;50.010;20.020;2024-02-15T04:40:08;62.90;;;31.13;;
28007;SDS011;15333;50.010;20.020;2024-02-15T04:43:10;68.80;;;34.72;;
28007;SDS011;15333;50.010;20.020;2024-02-15T04:46:11;60.35;;;33.95;;
28007;SDS011;15333;50.010;20.020;2024-02-15T04:49:12;70.22;;;34.58;;
28007;SDS011;15333;50.010;20.020;2024-02-15T04:52:14;70.57;;;34.92;;
28007;SDS011;15333;50.010;20.020;2024-02-15T04:55:15;64.75;;;35.78;;
28007;SDS011;15333;50.010;20.020;2024-02-15T04:58:18;73.00;;;37.33;;
28007;SDS011;15333;50.010;20.020;2024-02-15T05:01:19;66.82;;;38.65;;
28007;SDS011;15333;50.010;20.020;2024-02-15T05:04:20;70.70;;;36.60;;
28007;SDS011;15333;50.010;20.020;2024-02-15T05:07:21;66.55;;;36.40;;
28007;SDS011;15333;50.010;20.020;2024-02-15T05:10:23;75.60;;;39.05;;
28007;SDS011;15333;50.010;20.020;2024-02-15T05:13:24;71.30;;;38.47;;
28007;SDS011;15333;50.010;20.020;2024-02-15T05:16:26;70.95;;;38.72;;
28007;SDS011;15333;50.010;20.020;2024-02-15T05:19:27;70.03;;;38.10;;
28007;SDS011;15333;50.010;20.020;2024-02-15T05:22:28;71.53;;;38.92;;
28007;SDS011;15333;50.010;20.020;2024-02-15T05:25:29;73.97;;;40.70;;
28007;SDS011;15333;50.010;20.020;2024-02-15T05:28:33;78.53;;;38.97;;
28007;SDS011;15333;50.010;20.020;2024-02-15T05:31:34;74.95;;;40.03;;
28007;SDS011;15333;50.010;20.020;2024-02-15T05:34:38;73.93;;;41.00;;
28007;SDS011;15333;50.010;20.020;2024-02-15T05:37:40;75.50;;;40.53;;
28007;SDS011;15333;50.010;20.020;2024-02-15T05:40:41;78.28;;;39.42;;
28007;SDS011;15333;50.010;20.020;2024-02-15T05:43:42;70.55;;;39.60;;
28007;SDS011;15333;50.010;20.020;2024-02-15T05:46:43;80.78;;;42.92;;
28007;SDS011;15333;50.010;20.020;2024-02-15T05:49:44;82.13;;;42.03;;
28007;SDS011;15333;50.010;20.020;2024-02-15T05:52:47;83.20;;;42.13;;
28007;SDS011;15333;50.010;20.020;2024-02-15T05:55:48;83.90;;;44.20;;
28007;SDS011;15333;50.010;20.020;2024-02-15T05:58:50;86.68;;;45.63;;
28007;SDS011;15333;50.010;20.020;2024-02-15T06:01:51;86.15;;;47.53;;
28007;SDS011;15333;50.010;20.020;2024-02-15T06:04:52;89.45;;;45.70;;
28007;SDS011;15333;50.010;20.020;2024-02-15T06:07:54;82.93;;;44.97;;
28007;SDS011;15333;50.010;20.020;2024-02-15T06:10:55;85.53;;;44.25;;
28007;SDS011;15333;50.010;20.020;2024-02-15T06:13:56;96.15;;;46.20;;
28007;SDS011;15333;50.010;20.020;2024-02-15T06:16:57;101.85;;;46.70;;
28007;SDS011;15333;50.010;20.020;2024-02-15T06:19:58;94.13;;;48.50;;
28007;SDS011;15333;50.010;20.020;2024-02-15T06:22:59;91.18;;;46.30;;
28007;SDS011;15333;50.010;20.020;2024-02-15T06:26:00;82.63;;;45.75;;
28007;SDS011;15333;50.010;20.020;2024-02-15T06:29:04;86.45;;;46.72;;
28007;SDS011;15333;50.010;20.020;2024-02-15T06:32:23;91.43;;;46.35;;
28007;SDS011;15333;50.010;20.020;2024-02-15T06:35:43;99.83;;;48.20;;
28007;SDS011;15333;50.010;20.020;2024-02-15T06:39:02;98.60;;;48.25;;
28007;SDS011;15333;50.010;20.020;2024-02-15T06:42:22;101.93;;;50.00;;
28007;SDS011;15333;50.010;20.020;2024-02-15T06:45:22;100.45;;;49.42;;
28007;SDS011;15333;50.010;20.020;2024-02-15T06:48:24;100.70;;;47.00;;
28007;SDS011;15333;50.010;20.020;2024-02-15T06:51:26;91.70;;;47.75;;
28007;SDS011;15333;50.010;20.020;2024-02-15T06:54:28;96.93;;;46.88;;
28007;SDS011;15333;50.010;20.020;2024-02-15T06:57:28;89.43;;;47.28;;
28007;SDS011;15333;50.010;20.020;2024-02-15T07:00:29;99.40;;;46.70;;
28007;SDS011;15333;50.010;20.020;2024-02-15T07:03:31;90.35;;;47.30;;
28007;SDS011;15333;50.010;20.020;2024-02-15T07:06:34;86.28;;;45.40;;
28007;SDS011;15333;50.010;20.020;2024-02-15T07:09:37;92.65;;;44.95;;
28007;SDS011;15333;50.010;20.020;2024-02-15T07:12:39;98.93;;;45.97;;
28007;SDS011;15333;50.010;20.020;2024-02-15T07:15:40;86.25;;;43.63;;
28007;SDS011;15333;50.010;20.020;2024-02-15T07:18:42;85.70;;;43.58;;
28007;SDS011;15333;50.010;20.020;2024-02-15T07:21:44;90.57;;;43.72;;
28007;SDS011;15333;50.010;20.020;2024-02-15T07:24:45;90.70;;;46.75;;
28007;SDS011;15333;50.010;20.020;2024-02-15T07:27:45;92.78;;;46.92;;
28007;SDS011;15333;50.010;20.020;2024-02-15T07:30:46;93.30;;;47.47;;
28007;SDS011;15333;50.010;20.020;2024-02-15T07:33:51;88.93;;;47.53;;
28007;SDS011;15333;50.010;20.020;2024-02-15T07:36:52;86.00;;;45.55;;
28007;SDS011;15333;50.010;20.020;2024-02-15T07:39:53;82.50;;;44.30;;
28007;SDS011;15333;50.010;20.020;2024-02-15T07:42:56;92.32;;;45.20;;
28007;SDS011;15333;50.010;20.020;2024-02-15T07:45:58;87.15;;;42.90;;
28007;SDS011;15333;50.010;20.020;2024-02-15T07:48:59;83.97;;;43.95;;
28007;SDS011;15333;50.010;20.020;2024-02-15T07:52:00;88.82;;;43.03;;
28007;SDS011;15333;50.010;20.020;2024-02-15T07:55:01;94.07;;;44.47;;
28007;SDS011;15333;50.010;20.020;2024-02-15T07:58:09;82.85;;;42.47;;
28007;SDS011;15333;50.010;20.020;2024-02-15T08:01:10;83.28;;;42.47;;
28007;SDS011;15333;50.010;20.020;2024-02-15T08:04:10;86.13;;;43.38;;
28007;SDS011;15333;50.010;20.020;2024-02-15T08:07:12;90.38;;;43.55;;
28007;SDS011;15333;50.010;20.020;2024-02-15T08:10:13;82.38;;;42.05;;
28007;SDS011;15333;50.010;20.020;2024-02-15T08:13:15;84.93;;;43.40;;
28007;SDS011;15333;50.010;20.020;2024-02-15T08:16:16;84.57;;;43.22;;
28007;SDS011;15333;50.010;20.020;2024-02-15T08:19:17;103.18;;;44.20;;
28007;SDS011;15333;50.010;20.020;2024-02-15T08:22:18;86.45;;;44.17;;
28007;SDS011;15333;50.010;20.020;2024-02-15T08:25:24;93.40;;;44.95;;
28007;SDS011;15333;50.010;20.020;2024-02-15T08:28:26;95.22;;;48.10;;
28007;SDS011;15333;50.010;20.020;2024-02-15T08:31:29;94.72;;;46.70;;
28007;SDS011;15333;50.010;20.020;2024-02-15T08:34:32;100.75;;;46.63;;
28007;SDS011;15333;50.010;20.020;2024-02-15T08:37:36;91.00;;;44.70;;
28007;SDS011;15333;50.010;20.020;2024-02-15T08:40:38;94.07;;;46.83;;
28007;SDS011;15333;50.010;20.020;2024-02-15T08:43:39;99.80;;;47.10;;
28007;SDS011;15333;50.010;20.020;2024-02-15T08:46:42;98.00;;;46.83;;
28007;SDS011;15333;50.010;20.020;2024-02-15T08:49:43;94.07;;;45.92;;
28007;SDS011;15333;50.010;20.020;2024-02-15T08:52:43;88.93;;;43.88;;
28007;SDS011;15333;50.010;20.020;2024-02-15T08:55:45;97.20;;;48.42;;
28007;SDS011;15333;50.010;20.020;2024-02-15T08:58:46;85.60;;;48.33;;
28007;SDS011;15333;50.010;20.020;2024-02-15T09:01:47;93.57;;;48.03;;
28007;SDS011;15333;50.010;20.020;2024-02-15T09:04:47;97.13;;;48.75;;
28007;SDS011;15333;50.010;20.020;2024-02-15T09:07:48;87.18;;;45.50;;
28007;SDS011;15333;50.010;20.020;2024-02-15T09:10:51;88.55;;;47.28;;
28007;SDS011;15333;50.010;20.020;2024-02-15T09:13:53;90.90;;;46.28;;
28007;SDS011;15333;50.010;20.020;2024-02-15T09:16:53;82.70;;;45.95;;
28007;SDS011;15333;50.010;20.020;2024-02-15T09:19:54;88.40;;;47.17;;
28007;SDS011;15333;50.010;20.020;2024-02-15T09:22:55;88.13;;;48.10;;
28007;SDS011;15333;50.010;20.020;2024-02-15T09:25:57;87.15;;;46.67;;
28007;SDS011;15333;50.010;20.020;2024-02-15T09:28:57;97.82;;;49.83;;
28007;SDS011;15333;50.010;20.020;2024-02-15T09:31:59;86.00;;;46.92;;
28007;SDS011;15333;50.010;20.020;2024-02-15T09:35:02;95.70;;;50.60;;
28007;SDS011;15333;50.010;20.020;2024-02-15T09:38:04;103.50;;;50.85;;
28007;SDS011;15333;50.010;20.020;2024-02-15T09:41:06;97.18;;;51.13;;
28007;SDS011;15333;50.010;20.020;2024-02-15T09:44:08;106.28;;;51.00;;
28007;SDS011;15333;50.010;20.020;2024-02-15T09:47:09;96.93;;;52.00;;
28007;SDS011;15333;50.010;20.020;2024-02-15T09:50:13;93.05;;;49.25;;
28007;SDS011;15333;50.010;20.020;2024-02-15T09:53:15;96.28;;;47.95;;
28007;SDS011;15333;50.010;20.020;2024-02-15T09:56:20;88.95;;;47.72;;
28007;SDS011;15333;50.010;20.020;2024-02-15T09:59:24;90.20;;;48.50;;
28007;SDS011;15333;50.010;20.020;2024-02-15T10:02:27;94.78;;;47.20;;
28007;SDS011;15333;50.010;20.020;2024-02-15T10:05:28;89.30;;;46.25;;
28007;SDS011;15333;50.010;20.020;2024-02-15T10:08:29;83.57;;;45.15;;
28007;SDS011;15333;50.010;20.020;2024-02-15T10:11:30;93.70;;;46.00;;
28007;SDS011;15333;50.010;20.020;2024-02-15T10:14:31;85.38;;;45.63;;
28007;SDS011;15333;50.010;20.020;2024-02-15T10:17:33;82.85;;;45.95;;
28007;SDS011;15333;50.010;20.020;2024-02-15T10:20:36;92.55;;;43.67;;
28007;SDS011;15333;50.010;20.020;2024-02-15T10:23:39;81.18;;;43.00;;
28007;SDS011;15333;50.010;20.020;2024-02-15T10:26:40;75.88;;;40.30;;
28007;SDS011;15333;50.010;20.020;2024-02-15T10:29:40;70.30;;;36.92;;
28007;SDS011;15333;50.010;20.020;2024-02-15T10:32:42;70.18;;;36.80;;
28007;SDS011;15333;50.010;20.020;2024-02-15T10:35:43;67.57;;;37.22;;
28007;SDS011;15333;50.010;20.020;2024-02-15T10:38:45;68.15;;;36.90;;
28007;SDS011;15333;50.010;20.020;2024-02-15T10:44:54;57.35;;;30.90;;
28007;SDS011;15333;50.010;20.020;2024-02-15T10:47:55;52.22;;;26.23;;
28007;SDS011;15333;50.010;20.020;2024-02-15T10:50:56;42.67;;;24.73;;
28007;SDS011;15333;50.010;20.020;2024-02-15T10:54:03;33.70;;;18.17;;
28007;SDS011;15333;50.010;20.020;2024-02-15T10:57:09;35.40;;;15.73;;
28007;SDS011;15333;50.010;20.020;2024-02-15T11:00:15;39.15;;;16.80;;
28007;SDS011;15333;50.010;20.020;2024-02-15T11:03:24;25.80;;;11.82;;
28007;SDS011;15333;50.010;20.020;2024-02-15T11:06:28;17.55;;;8.95;;
28007;SDS011;15333;50.010;20.020;2024-02-15T11:09:34;23.13;;;9.15;;
28007;SDS011;15333;50.010;20.020;2024-02-15T11:12:37;12.70;;;7.53;;
28007;SDS011;15333;50.010;20.020;2024-02-15T11:15:42;18.63;;;8.23;;
28007;SDS011;15333;50.010;20.020;2024-02-15T11:18:50;12.40;;;7.25;;
28007;SDS011;15333;50.010;20.020;2024-02-15T11:21:52;13.10;;;7.65;;
28007;SDS011;15333;50.010;20.020;2024-02-15T11:24:53;13.57;;;7.00;;
28007;SDS011;15333;50.010;20.020;2024-02-15T11:27:54;13.02;;;6.57;;
28007;SDS011;15333;50.010;20.020;2024-02-15T11:30:56;10.00;;;6.43;;
28007;SDS011;15333;50.010;20.020;2024-02-15T11:33:57;10.77;;;6.50;;
28007;SDS011;15333;50.010;20.020;2024-02-15T11:36:58;10.43;;;5.47;;
28007;SDS011;15333;50.010;20.020;2024-02-15T11:39:59;12.52;;;6.10;;
28007;SDS011;15333;50.010;20.020;2024-02-15T11:43:00;8.43;;;5.40;;
28007;SDS011;15333;50.010;20.020;2024-02-15T11:46:01;10.40;;;5.78;;
28007;SDS011;15333;50.010;20.020;2024-02-15T11:49:03;10.18;;;5.30;;
28007;SDS011;15333;50.010;20.020;2024-02-15T11:52:10;8.38;;;5.35;;
28007;SDS011;15333;50.010;20.020;2024-02-15T11:55:12;10.60;;;5.70;;
28007;SDS011;15333;50.010;20.020;2024-02-15T11:58:16;9.38;;;5.15;;
28007;SDS011;15333;50.010;20.020;2024-02-15T12:01:22;10.27;;;4.57;;
28007;SDS011;15333;50.010;20.020;2024-02-15T12:04:52;6.65;;;4.40;;
28007;SDS011;15333;50.010;20.020;2024-02-15T12:08:12;9.05;;;5.43;;
28007;SDS011;15333;50.010;20.020;2024-02-15T12:11:31;9.77;;;4.95;;
28007;SDS011;15333;50.010;20.020;2024-02-15T12:15:01;5.97;;;4.13;;
28007;SDS011;15333;50.010;20.020;2024-02-15T12:18:21;5.28;;;3.92;;
28007;SDS011;15333;50.010;20.020;2024-02-15T12:21:42;6.07;;;4.18;;
28007;SDS011;15333;50.010;20.020;2024-02-15T12:24:43;6.57;;;4.03;;
28007;SDS011;15333;50.010;20.020;2024-02-15T12:27:44;8.82;;;4.97;;
28007;SDS011;15333;50.010;20.020;2024-02-15T12:30:47;6.15;;;4.28;;
28007;SDS011;15333;50.010;20.020;2024-02-15T12:34:02;12.18;;;5.18;;
28007;SDS011;15333;50.010;20.020;2024-02-15T12:37:09;8.18;;;4.20;;
28007;SDS011;15333;50.010;20.020;2024-02-15T12:40:13;9.55;;;4.75;;
28007;SDS011;15333;50.010;20.020;2024-02-15T12:43:17;8.40;;;4.80;;
28007;SDS011;15333;50.010;20.020;2024-02-15T12:46:19;7.85;;;4.47;;
28007;SDS011;15333;50.010;20.020;2024-02-15T12:52:37;9.52;;;5.10;;
28007;SDS011;15333;50.010;20.020;2024-02-15T12:55:44;8.63;;;5.35;;
28007;SDS011;15333;50.010;20.020;2024-02-15T13:01:56;8.60;;;4.82;;
28007;SDS011;15333;50.010;20.020;2024-02-15T13:04:59;9.07;;;4.85;;
28007;SDS011;15333;50.010;20.020;2024-02-15T13:08:00;7.30;;;4.72;;
28007;SDS011;15333;50.010;20.020;2024-02-15T13:11:02;8.30;;;4.80;;
28007;SDS011;15333;50.010;20.020;2024-02-15T13:14:03;8.77;;;4.80;;
28007;SDS011;15333;50.010;20.020;2024-02-15T13:17:05;11.65;;;5.13;;
28007;SDS011;15333;50.010;20.020;2024-02-15T13:20:07;7.63;;;4.50;;
28007;SDS011;15333;50.010;20.020;2024-02-15T13:23:13;7.93;;;4.72;;
28007;SDS011;15333;50.010;20.020;2024-02-15T13:26:22;9.43;;;4.97;;
28007;SDS011;15333;50.010;20.020;2024-02-15T13:29:26;11.35;;;5.90;;
28007;SDS011;15333;50.010;20.020;2024-02-15T13:32:27;9.75;;;5.75;;
28007;SDS011;15333;50.010;20.020;2024-02-15T13:35:27;9.23;;;5.47;;
28007;SDS011;15333;50.010;20.020;2024-02-15T13:38:29;11.25;;;5.25;;
28007;SDS011;15333;50.010;20.020;2024-02-15T13:41:30;9.05;;;5.65;;
28007;SDS011;15333;50.010;20.020;2024-02-15T13:44:31;10.38;;;5.45;;
28007;SDS011;15333;50.010;20.020;2024-02-15T13:47:32;10.70;;;5.20;;
28007;SDS011;15333;50.010;20.020;2024-02-15T13:50:33;9.55;;;5.57;;
28007;SDS011;15333;50.010;20.020;2024-02-15T13:53:34;12.95;;;5.38;;
28007;SDS011;15333;50.010;20.020;2024-02-15T13:56:35;12.02;;;6.22;;
28007;SDS011;15333;50.010;20.020;2024-02-15T13:59:36;11.38;;;4.88;;
28007;SDS011;15333;50.010;20.020;2024-02-15T14:02:37;11.32;;;5.63;;
28007;SDS011;15333;50.010;20.020;2024-02-15T14:05:38;12.57;;;5.30;;
28007;SDS011;15333;50.010;20.020;2024-02-15T14:08:42;13.55;;;5.18;;
28007;SDS011;15333;50.010;20.020;2024-02-15T14:11:42;7.13;;;4.60;;
28007;SDS011;15333;50.010;20.020;2024-02-15T14:14:44;10.82;;;5.60;;
28007;SDS011;15333;50.010;20.020;2024-02-15T14:17:46;11.30;;;6.03;;
28007;SDS011;15333;50.010;20.020;2024-02-15T14:20:47;10.02;;;6.15;;
28007;SDS011;15333;50.010;20.020;2024-02-15T14:23:49;12.70;;;5.85;;
28007;SDS011;15333;50.010;20.020;2024-02-15T14:26:50;10.82;;;5.80;;
28007;SDS011;15333;50.010;20.020;2024-02-15T14:29:51;11.63;;;6.50;;
28007;SDS011;15333;50.010;20.020;2024-02-15T14:33:11;11.45;;;6.70;;
28007;SDS011;15333;50.010;20.020;2024-02-15T14:36:16;11.60;;;6.47;;
28007;SDS011;15333;50.010;20.020;2024-02-15T14:39:18;14.60;;;7.15;;
28007;SDS011;15333;50.010;20.020;2024-02-15T14:42:19;13.27;;;7.80;;
28007;SDS011;15333;50.010;20.020;2024-02-15T14:45:22;13.93;;;7.93;;
28007;SDS011;15333;50.010;20.020;2024-02-15T14:48:23;16.85;;;8.25;;
28007;SDS011;15333;50.010;20.020;2024-02-15T14:51:24;14.95;;;7.80;;
28007;SDS011;15333;50.010;20.020;2024-02-15T14:54:25;17.15;;;9.00;;
28007;SDS011;15333;50.010;20.020;2024-02-15T14:57:26;13.98;;;8.45;;
28007;SDS011;15333;50.010;20.020;2024-02-15T15:00:27;16.73;;;9.18;;
28007;SDS011;15333;50.010;20.020;2024-02-15T15:03:31;19.33;;;10.18;;
28007;SDS011;15333;50.010;20.020;2024-02-15T15:06:33;24.50;;;10.57;;
28007;SDS011;15333;50.010;20.020;2024-02-15T15:09:53;15.20;;;9.00;;
28007;SDS011;15333;50.010;20.020;2024-02-15T15:13:12;15.73;;;7.57;;
28007;SDS011;15333;50.010;20.020;2024-02-15T15:16:14;15.13;;;6.93;;
28007;SDS011;15333;50.010;20.020;2024-02-15T15:19:18;12.45;;;6.47;;
28007;SDS011;15333;50.010;20.020;2024-02-15T15:22:19;14.73;;;6.22;;
28007;SDS011;15333;50.010;20.020;2024-02-15T15:25:20;11.65;;;6.95;;
28007;SDS011;15333;50.010;20.020;2024-02-15T15:28:21;13.43;;;6.70;;
28007;SDS011;15333;50.010;20.020;2024-02-15T15:31:22;10.90;;;5.75;;
28007;SDS011;15333;50.010;20.020;2024-02-15T15:34:23;11.77;;;5.93;;
28007;SDS011;15333;50.010;20.020;2024-02-15T15:37:23;11.73;;;6.60;;
28007;SDS011;15333;50.010;20.020;2024-02-15T15:40:24;12.00;;;6.80;;
28007;SDS011;15333;50.010;20.020;2024-02-15T15:43:26;10.93;;;6.47;;
28007;SDS011;15333;50.010;20.020;2024-02-15T15:46:27;10.85;;;6.20;;
28007;SDS011;15333;50.010;20.020;2024-02-15T15:49:28;10.40;;;6.25;;
28007;SDS011;15333;50.010;20.020;2024-02-15T15:52:30;11.38;;;5.93;;
28007;SDS011;15333;50.010;20.020;2024-02-15T15:55:35;13.30;;;6.80;;
28007;SDS011;15333;50.010;20.020;2024-02-15T15:58:36;12.15;;;6.45;;
28007;SDS011;15333;50.010;20.020;2024-02-15T16:01:37;15.32;;;7.25;;
28007;SDS011;15333;50.010;20.020;2024-02-15T16:04:44;14.40;;;7.20;;
28007;SDS011;15333;50.010;20.020;2024-02-15T16:07:46;11.60;;;7.10;;
28007;SDS011;15333;50.010;20.020;2024-02-15T16:10:47;11.77;;;6.85;;
28007;SDS011;15333;50.010;20.020;2024-02-15T16:13:48;15.20;;;7.07;;
28007;SDS011;15333;50.010;20.020;2024-02-15T16:16:50;16.60;;;7.50;;
28007;SDS011;15333;50.010;20.020;2024-02-15T16:19:53;12.02;;;8.13;;
28007;SDS011;15333;50.010;20.020;2024-02-15T16:22:54;15.00;;;7.90;;
28007;SDS011;15333;50.010;20.020;2024-02-15T16:25:55;14.23;;;8.93;;
28007;SDS011;15333;50.010;20.020;2024-02-15T16:28:58;18.83;;;8.90;;
28007;SDS011;15333;50.010;20.020;2024-02-15T16:31:59;16.77;;;10.02;;
28007;SDS011;15333;50.010;20.020;2024-02-15T16:35:00;17.75;;;9.77;;
28007;SDS011;15333;50.010;20.020;2024-02-15T16:38:02;19.48;;;11.00;;
28007;SDS011;15333;50.010;20.020;2024-02-15T16:41:05;23.77;;;11.68;;
28007;SDS011;15333;50.010;20.020;2024-02-15T16:44:08;32.17;;;14.13;;
28007;SDS011;15333;50.010;20.020;2024-02-15T16:47:09;32.13;;;15.77;;
28007;SDS011;15333;50.010;20.020;2024-02-15T16:50:09;54.97;;;28.50;;
28007;SDS011;15333;50.010;20.020;2024-02-15T16:53:10;42.83;;;24.58;;
28007;SDS011;15333;50.010;20.020;2024-02-15T16:56:18;49.42;;;26.75;;
28007;SDS011;15333;50.010;20.020;2024-02-15T16:59:19;56.00;;;28.60;;
28007;SDS011;15333;50.010;20.020;2024-02-15T17:02:20;42.13;;;22.05;;
28007;SDS011;15333;50.010;20.020;2024-02-15T17:05:21;52.03;;;24.27;;
28007;SDS011;15333;50.010;20.020;2024-02-15T17:08:24;54.95;;;25.17;;
28007;SDS011;15333;50.010;20.020;2024-02-15T17:11:25;56.88;;;25.55;;
28007;SDS011;15333;50.010;20.020;2024-02-15T17:14:25;64.38;;;27.95;;
28007;SDS011;15333;50.010;20.020;2024-02-15T17:17:26;49.35;;;27.10;;
28007;SDS011;15333;50.010;20.020;2024-02-15T17:20:27;47.88;;;27.35;;
28007;SDS011;15333;50.010;20.020;2024-02-15T17:23:28;53.95;;;28.30;;
28007;SDS011;15333;50.010;20.020;2024-02-15T17:26:29;54.80;;;29.23;;
28007;SDS011;15333;50.010;20.020;2024-02-15T17:29:30;59.50;;;32.83;;
28007;SDS011;15333;50.010;20.020;2024-02-15T17:32:31;58.85;;;31.25;;
28007;SDS011;15333;50.010;20.020;2024-02-15T17:35:32;57.38;;;31.40;;
28007;SDS011;15333;50.010;20.020;2024-02-15T17:38:36;53.45;;;30.77;;
28007;SDS011;15333;50.010;20.020;2024-02-15T17:41:37;52.72;;;29.35;;
28007;SDS011;15333;50.010;20.020;2024-02-15T17:44:38;56.50;;;29.55;;
28007;SDS011;15333;50.010;20.020;2024-02-15T17:47:41;55.50;;;30.35;;